createdAt,value
2022-10-17T00:01:06.963Z,13.23
2022-10-17T00:03:52.038Z,17.20
2022-10-17T00:06:37.117Z,17.55
2022-10-17T00:09:22.446Z,16.70
2022-10-17T00:12:07.476Z,14.88
2022-10-17T00:14:52.481Z,15.90
2022-10-17T00:17:38.333Z,16.75
2022-10-17T00:20:23.621Z,13.90
2022-10-17T00:23:08.924Z,15.65
2022-10-17T00:26:01.844Z,19.30
2022-10-17T00:28:51.503Z,10.13
2022-10-17T00:31:36.524Z,15.82
2022-10-17T00:34:22.059Z,19.63
2022-10-17T00:37:07.261Z,12.30
2022-10-17T00:39:52.302Z,19.75
2022-10-17T00:42:37.551Z,17.67
2022-10-17T00:45:31.005Z,21.52
2022-10-17T00:48:21.176Z,23.23
2022-10-17T00:51:08.059Z,19.15
2022-10-17T00:53:53.436Z,28.83
2022-10-17T00:56:40.369Z,18.55
2022-10-17T00:59:26.068Z,22.85
2022-10-17T01:02:15.484Z,14.57
2022-10-17T01:05:01.243Z,18.77
2022-10-17T01:07:48.559Z,17.48
2022-10-17T01:10:55.635Z,18.00
2022-10-17T01:13:59.261Z,18.77
2022-10-17T01:16:56.711Z,23.20
2022-10-17T01:19:55.492Z,14.00
2022-10-17T01:22:54.707Z,14.47
2022-10-17T01:26:00.899Z,22.23
2022-10-17T01:29:11.035Z,19.40
2022-10-17T01:32:05.991Z,11.07
2022-10-17T01:34:51.203Z,12.25
2022-10-17T01:37:50.610Z,13.10
2022-10-17T01:40:58.978Z,19.00
2022-10-17T01:43:54.682Z,14.25
2022-10-17T01:46:43.887Z,14.07
2022-10-17T01:49:31.665Z,17.60
2022-10-17T01:52:24.770Z,19.15
2022-10-17T01:55:15.089Z,14.27
2022-10-17T01:58:19.048Z,19.45
2022-10-17T02:01:07.726Z,14.60
2022-10-17T02:03:53.738Z,10.85
2022-10-17T02:06:39.168Z,16.23
2022-10-17T02:09:26.761Z,10.73
2022-10-17T02:12:27.857Z,10.27
2022-10-17T02:15:36.728Z,9.98
2022-10-17T02:18:37.850Z,11.60
2022-10-17T02:21:43.982Z,11.77
2022-10-17T02:24:54.980Z,10.80
2022-10-17T02:27:52.483Z,12.25
2022-10-17T02:30:54.919Z,14.82
2022-10-17T02:33:49.502Z,11.10
2022-10-17T02:36:45.904Z,10.23
2022-10-17T02:39:32.903Z,6.57
2022-10-17T02:42:19.886Z,13.02
2022-10-17T02:45:06.445Z,10.45
2022-10-17T02:48:02.317Z,15.25
2022-10-17T02:51:12.248Z,15.98
2022-10-17T02:54:03.186Z,14.52
2022-10-17T02:57:22.084Z,13.25
2022-10-17T03:00:11.031Z,12.23
2022-10-17T03:02:55.900Z,16.30
2022-10-17T03:05:41.210Z,15.02
2022-10-17T03:08:26.557Z,10.18
2022-10-17T03:11:11.705Z,12.30
2022-10-17T03:13:56.779Z,16.60
2022-10-17T03:16:42.007Z,13.20
2022-10-17T03:19:27.404Z,12.00
2022-10-17T03:22:12.356Z,8.52
2022-10-17T03:24:57.876Z,11.63
2022-10-17T03:27:43.041Z,13.55
2022-10-17T03:30:28.926Z,10.13
2022-10-17T03:33:13.948Z,21.08
2022-10-17T03:35:58.747Z,12.38
2022-10-17T03:38:45.021Z,11.45
2022-10-17T03:41:30.158Z,12.95
2022-10-17T03:44:15.349Z,11.30
2022-10-17T03:47:00.617Z,8.75
2022-10-17T03:49:45.660Z,11.20
2022-10-17T03:52:30.837Z,13.38
2022-10-17T03:55:16.543Z,12.07
2022-10-17T03:58:01.656Z,14.52
2022-10-17T04:00:46.652Z,14.70
2022-10-17T04:03:32.305Z,12.50
2022-10-17T04:06:17.315Z,11.15
2022-10-17T04:09:03.634Z,9.90
2022-10-17T04:11:48.953Z,12.63
2022-10-17T04:14:34.250Z,13.07
2022-10-17T04:17:19.512Z,13.20
2022-10-17T04:20:05.202Z,13.98
2022-10-17T04:22:50.126Z,12.63
2022-10-17T04:25:36.789Z,13.65
2022-10-17T04:28:28.480Z,10.30
2022-10-17T04:31:14.721Z,12.25
2022-10-17T04:33:59.999Z,16.98
2022-10-17T04:36:45.705Z,19.73
2022-10-17T04:39:30.582Z,18.20
2022-10-17T04:42:15.673Z,20.08
2022-10-17T04:45:00.537Z,13.60
2022-10-17T04:47:45.729Z,12.32
2022-10-17T04:50:31.057Z,15.88
2022-10-17T04:53:16.465Z,19.83
2022-10-17T04:56:02.159Z,14.60
2022-10-17T04:58:47.730Z,9.77
2022-10-17T05:01:33.118Z,16.27
2022-10-17T05:04:21.068Z,12.45
2022-10-17T05:07:09.298Z,21.33
2022-10-17T05:09:54.517Z,13.27
2022-10-17T05:12:39.417Z,20.98
2022-10-17T05:15:24.576Z,22.65
2022-10-17T05:18:09.938Z,16.88
2022-10-17T05:20:55.079Z,8.20
2022-10-17T05:23:40.302Z,10.95
2022-10-17T05:26:26.098Z,26.23
2022-10-17T05:29:11.599Z,12.20
2022-10-17T05:31:56.909Z,13.15
2022-10-17T05:34:42.075Z,14.50
2022-10-17T05:37:29.998Z,17.88
2022-10-17T05:40:15.392Z,14.73
2022-10-17T05:43:00.386Z,14.63
2022-10-17T05:45:45.294Z,15.18
2022-10-17T05:48:30.306Z,17.00
2022-10-17T05:51:15.444Z,13.60
2022-10-17T05:54:00.491Z,14.80
2022-10-17T05:56:45.298Z,13.95
2022-10-17T05:59:30.112Z,18.60
2022-10-17T06:02:15.009Z,17.85
2022-10-17T06:04:59.962Z,13.57
2022-10-17T06:07:45.228Z,11.93
2022-10-17T06:10:30.532Z,13.93
2022-10-17T06:13:17.095Z,18.65
2022-10-17T06:16:02.012Z,19.10
2022-10-17T06:18:46.891Z,18.38
2022-10-17T06:21:36.340Z,12.40
2022-10-17T06:24:21.446Z,11.82
2022-10-17T06:27:10.979Z,12.65
2022-10-17T06:29:57.204Z,9.40
2022-10-17T06:32:42.143Z,13.43
2022-10-17T06:35:27.114Z,14.75
2022-10-17T06:38:12.363Z,16.52
2022-10-17T06:41:04.935Z,16.65
2022-10-17T06:43:50.112Z,14.45
2022-10-17T06:46:35.080Z,12.75
2022-10-17T06:49:20.059Z,10.13
2022-10-17T06:52:05.249Z,14.05
2022-10-17T06:54:51.861Z,11.35
2022-10-17T06:57:36.878Z,11.07
2022-10-17T07:00:23.348Z,11.57
2022-10-17T07:03:08.384Z,13.05
2022-10-17T07:05:55.051Z,12.82
2022-10-17T07:08:47.121Z,9.52
2022-10-17T07:11:33.109Z,5.88
2022-10-17T07:14:18.528Z,8.13
2022-10-17T07:17:03.478Z,5.80
2022-10-17T07:19:48.915Z,6.63
2022-10-17T07:22:34.169Z,9.20
2022-10-17T07:25:19.644Z,8.35
2022-10-17T07:28:04.651Z,9.68
2022-10-17T07:30:52.072Z,10.10
2022-10-17T07:33:42.527Z,5.82
2022-10-17T07:36:27.421Z,6.13
2022-10-17T07:39:12.809Z,5.65
2022-10-17T07:41:58.798Z,6.55
2022-10-17T07:44:47.285Z,6.07
2022-10-17T07:47:35.542Z,5.43
2022-10-17T07:50:20.741Z,4.10
2022-10-17T07:53:05.700Z,3.97
2022-10-17T07:55:51.355Z,4.35
2022-10-17T07:58:37.592Z,5.72
2022-10-17T08:01:22.845Z,4.88
2022-10-17T08:04:08.147Z,6.78
2022-10-17T08:07:05.410Z,2.67
2022-10-17T08:09:56.834Z,6.90
2022-10-17T08:12:42.311Z,6.32
2022-10-17T08:15:30.937Z,6.90
2022-10-17T08:21:06.321Z,4.82
2022-10-17T08:23:51.646Z,4.25
2022-10-17T08:26:40.584Z,5.03
2022-10-17T08:29:28.483Z,7.72
2022-10-17T08:32:13.650Z,6.40
2022-10-17T08:34:58.850Z,9.60
2022-10-17T08:37:43.904Z,5.78
2022-10-17T08:40:35.456Z,7.07
2022-10-17T08:43:42.113Z,7.25
2022-10-17T08:46:34.225Z,5.95
2022-10-17T08:49:34.297Z,7.50
2022-10-17T08:52:29.200Z,6.45
2022-10-17T08:55:41.285Z,7.32
2022-10-17T08:58:35.347Z,7.60
2022-10-17T09:01:35.043Z,11.13
2022-10-17T09:04:43.601Z,12.63
2022-10-17T09:07:45.670Z,9.18
2022-10-17T09:10:30.821Z,13.38
2022-10-17T09:13:42.147Z,10.95
2022-10-17T09:16:42.390Z,11.10
2022-10-17T09:19:38.861Z,8.85
2022-10-17T09:22:28.289Z,8.75
2022-10-17T09:25:17.347Z,14.52
2022-10-17T09:28:12.530Z,10.53
2022-10-17T09:31:07.145Z,20.40
2022-10-17T09:33:55.740Z,13.63
2022-10-17T09:36:42.400Z,14.77
2022-10-17T09:39:32.962Z,16.93
2022-10-17T09:42:23.800Z,19.92
2022-10-17T09:45:19.440Z,14.40
2022-10-17T09:48:38.429Z,19.40
2022-10-17T09:51:26.299Z,13.02
2022-10-17T09:54:27.520Z,14.32
2022-10-17T09:57:14.894Z,17.30
2022-10-17T10:00:03.936Z,19.70
2022-10-17T10:05:34.470Z,18.30
2022-10-17T10:08:19.886Z,20.33
2022-10-17T10:11:13.504Z,24.33
2022-10-17T10:14:12.190Z,16.33
2022-10-17T10:16:57.089Z,21.95
2022-10-17T10:19:50.472Z,32.17
2022-10-17T10:22:35.456Z,23.02
2022-10-17T10:25:20.651Z,19.08
2022-10-17T10:28:12.220Z,22.25
2022-10-17T10:31:00.287Z,15.88
2022-10-17T10:33:49.466Z,22.65
2022-10-17T10:36:58.094Z,22.85
2022-10-17T10:39:47.588Z,22.00
2022-10-17T10:42:36.970Z,20.05
2022-10-17T10:45:47.934Z,19.50
2022-10-17T10:48:37.002Z,20.15
2022-10-17T10:51:49.366Z,20.55
2022-10-17T10:54:43.783Z,12.60
2022-10-17T10:57:33.370Z,18.98
2022-10-17T11:00:26.005Z,18.80
2022-10-17T11:03:21.790Z,18.88
2022-10-17T11:06:18.981Z,12.10
2022-10-17T11:09:28.846Z,21.13
2022-10-17T11:12:39.379Z,18.00
2022-10-17T11:15:42.990Z,21.67
2022-10-17T11:19:08.313Z,17.50
2022-10-17T11:22:13.259Z,16.20
2022-10-17T11:25:04.200Z,15.45
2022-10-17T11:27:49.418Z,16.73
2022-10-17T11:31:07.189Z,18.63
2022-10-17T11:34:06.186Z,25.23
2022-10-17T11:36:56.859Z,12.68
2022-10-17T11:40:17.088Z,21.20
2022-10-17T11:43:10.924Z,13.70
2022-10-17T11:46:01.323Z,13.23
2022-10-17T11:48:59.761Z,18.50
2022-10-17T11:52:01.957Z,15.10
2022-10-17T11:54:54.627Z,20.58
2022-10-17T11:58:22.964Z,18.48
2022-10-17T12:01:29.217Z,22.83
2022-10-17T12:04:49.377Z,15.63
2022-10-17T12:07:58.029Z,13.00
2022-10-17T12:10:57.250Z,16.42
2022-10-17T12:13:51.722Z,21.23
2022-10-17T12:16:38.165Z,19.67
2022-10-17T12:19:25.383Z,19.20
2022-10-17T12:22:25.926Z,10.52
2022-10-17T12:25:21.720Z,15.75
2022-10-17T12:28:06.900Z,16.25
2022-10-17T12:30:58.854Z,12.40
2022-10-17T12:34:17.655Z,14.00
2022-10-17T12:37:02.800Z,13.20
2022-10-17T12:39:47.946Z,14.48
2022-10-17T12:42:44.687Z,10.20
2022-10-17T12:45:56.856Z,12.85
2022-10-17T12:48:41.913Z,10.30
2022-10-17T12:51:35.613Z,13.68
2022-10-17T12:54:21.827Z,14.52
2022-10-17T12:57:19.080Z,14.60
2022-10-17T13:00:36.649Z,20.30
2022-10-17T13:03:26.000Z,12.10
2022-10-17T13:06:22.005Z,12.77
2022-10-17T13:09:38.558Z,15.55
2022-10-17T13:12:27.451Z,8.55
2022-10-17T13:15:18.903Z,15.73
2022-10-17T13:18:04.124Z,14.95
2022-10-17T13:21:16.114Z,14.43
2022-10-17T13:24:01.402Z,14.13
2022-10-17T13:26:46.926Z,13.95
2022-10-17T13:29:32.943Z,15.48
2022-10-17T13:32:18.251Z,14.57
2022-10-17T13:35:07.926Z,13.95
2022-10-17T13:37:54.251Z,11.15
2022-10-17T13:40:49.954Z,14.88
2022-10-17T13:43:35.587Z,11.70
2022-10-17T13:46:37.287Z,17.15
2022-10-17T13:49:32.407Z,14.48
2022-10-17T13:52:24.802Z,13.23
2022-10-17T13:55:17.480Z,10.32
2022-10-17T13:58:17.219Z,13.77
2022-10-17T14:01:03.052Z,13.50
2022-10-17T14:03:52.346Z,15.55
2022-10-17T14:06:49.612Z,11.63
2022-10-17T14:09:36.300Z,15.18
2022-10-17T14:12:22.423Z,11.93
2022-10-17T14:15:13.134Z,12.02
2022-10-17T14:18:06.753Z,13.70
2022-10-17T14:24:23.732Z,14.05
2022-10-17T14:27:30.862Z,16.52
2022-10-17T14:30:56.918Z,11.82
2022-10-17T14:33:50.494Z,10.63
2022-10-17T14:36:42.013Z,11.43
2022-10-17T14:39:29.234Z,13.35
2022-10-17T14:42:22.707Z,13.73
2022-10-17T14:45:13.460Z,9.43
2022-10-17T14:48:10.433Z,12.15
2022-10-17T14:51:09.565Z,9.30
2022-10-17T14:54:24.481Z,9.50
2022-10-17T14:57:28.707Z,15.23
2022-10-17T15:00:16.182Z,9.25
2022-10-17T15:03:01.462Z,15.45
2022-10-17T15:05:47.947Z,7.90
2022-10-17T15:08:33.422Z,7.28
2022-10-17T15:11:18.206Z,12.15
2022-10-17T15:14:03.217Z,12.82
2022-10-17T15:16:48.249Z,13.57
2022-10-17T15:19:33.166Z,2.72
2022-10-17T15:22:18.398Z,14.20
2022-10-17T15:25:03.680Z,18.38
2022-10-17T15:27:48.813Z,13.90
2022-10-17T15:30:36.365Z,8.77
2022-10-17T15:33:21.498Z,16.58
2022-10-17T15:36:20.534Z,14.52
2022-10-17T15:39:05.926Z,18.70
2022-10-17T15:41:51.125Z,13.75
2022-10-17T15:44:36.647Z,16.58
2022-10-17T15:47:34.183Z,19.77
2022-10-17T15:50:20.148Z,14.25
2022-10-17T15:53:05.731Z,15.98
2022-10-17T15:55:51.029Z,15.07
2022-10-17T15:58:40.173Z,13.20
2022-10-17T16:01:29.533Z,13.27
2022-10-17T16:04:15.853Z,14.60
2022-10-17T16:07:00.687Z,14.20
2022-10-17T16:09:46.259Z,18.77
2022-10-17T16:12:36.855Z,15.38
2022-10-17T16:15:23.062Z,19.33
2022-10-17T16:18:10.063Z,14.93
2022-10-17T16:20:55.043Z,17.50
2022-10-17T16:23:40.802Z,20.20
2022-10-17T16:26:27.046Z,15.07
2022-10-17T16:29:12.193Z,15.48
2022-10-17T16:31:57.231Z,14.98
2022-10-17T16:34:42.544Z,13.65
2022-10-17T16:37:27.538Z,16.67
2022-10-17T16:40:13.775Z,14.20
2022-10-17T16:42:58.653Z,23.00
2022-10-17T16:45:43.577Z,19.80
2022-10-17T16:48:29.752Z,15.50
2022-10-17T16:51:18.018Z,12.77
2022-10-17T16:54:04.576Z,14.27
2022-10-17T16:56:50.367Z,15.63
2022-10-17T16:59:35.384Z,18.25
2022-10-17T17:02:21.371Z,15.55
2022-10-17T17:05:07.246Z,13.52
2022-10-17T17:07:52.672Z,23.13
2022-10-17T17:10:38.131Z,16.17
2022-10-17T17:13:23.262Z,22.65
2022-10-17T17:16:18.157Z,18.67
2022-10-17T17:19:10.262Z,17.55
2022-10-17T17:21:55.602Z,24.50
2022-10-17T17:24:41.006Z,21.30
2022-10-17T17:27:28.655Z,22.15
2022-10-17T17:30:14.223Z,25.42
2022-10-17T17:33:00.449Z,28.88
2022-10-17T17:35:45.650Z,19.25
2022-10-17T17:38:33.034Z,17.88
2022-10-17T17:41:19.909Z,23.65
2022-10-17T17:44:05.398Z,16.45
2022-10-17T17:46:50.679Z,18.88
2022-10-17T17:49:35.661Z,19.42
2022-10-17T17:52:20.807Z,19.30
2022-10-17T17:55:06.602Z,18.88
2022-10-17T17:57:51.460Z,27.45
2022-10-17T18:00:36.497Z,23.95
2022-10-17T18:03:21.705Z,24.73
2022-10-17T18:06:08.112Z,26.15
2022-10-17T18:08:57.906Z,20.40
2022-10-17T18:11:43.093Z,32.35
2022-10-17T18:14:28.138Z,33.03
2022-10-17T18:17:13.069Z,26.25
2022-10-17T18:19:57.993Z,25.55
2022-10-17T18:22:43.059Z,25.05
2022-10-17T18:25:28.299Z,26.13
2022-10-17T18:28:13.293Z,28.60
2022-10-17T18:31:11.660Z,19.23
2022-10-17T18:34:00.034Z,25.17
2022-10-17T18:36:44.937Z,32.50
2022-10-17T18:39:30.390Z,23.50
2022-10-17T18:42:15.343Z,26.33
2022-10-17T18:45:00.771Z,30.20
2022-10-17T18:47:47.340Z,26.88
2022-10-17T18:50:32.506Z,26.50
2022-10-17T18:53:17.408Z,23.77
2022-10-17T18:56:03.354Z,25.55
2022-10-17T18:58:48.401Z,17.10
2022-10-17T19:01:34.048Z,30.50
2022-10-17T19:04:18.946Z,27.42
2022-10-17T19:07:04.352Z,26.83
2022-10-17T19:09:49.532Z,31.80
2022-10-17T19:12:34.685Z,21.77
2022-10-17T19:15:22.502Z,30.65
2022-10-17T19:18:10.962Z,33.03
2022-10-17T19:21:01.849Z,20.40
2022-10-17T19:23:55.970Z,21.58
2022-10-17T19:26:42.671Z,24.48
2022-10-17T19:29:31.052Z,22.35
2022-10-17T19:32:18.102Z,22.23
2022-10-17T19:35:06.503Z,31.10
2022-10-17T19:37:51.537Z,22.27
2022-10-17T19:40:40.691Z,30.95
2022-10-17T19:43:26.107Z,26.45
2022-10-17T19:46:16.180Z,21.73
2022-10-17T19:51:47.198Z,23.65
2022-10-17T19:54:32.558Z,17.98
2022-10-17T19:57:17.683Z,22.08
2022-10-17T20:00:02.987Z,25.58
2022-10-17T20:02:48.199Z,22.95
2022-10-17T20:05:33.053Z,26.33
2022-10-17T20:08:18.542Z,18.95
2022-10-17T20:11:24.683Z,21.55
2022-10-17T20:14:09.988Z,20.25
2022-10-17T20:16:55.513Z,22.83
2022-10-17T20:19:40.744Z,23.00
2022-10-17T20:22:25.689Z,29.17
2022-10-17T20:25:10.755Z,33.75
2022-10-17T20:27:55.926Z,32.55
2022-10-17T20:30:46.072Z,27.70
2022-10-17T20:33:32.043Z,30.65
2022-10-17T20:36:20.120Z,37.67
2022-10-17T20:39:07.131Z,30.45
2022-10-17T20:41:52.541Z,28.30
2022-10-17T20:44:37.714Z,25.08
2022-10-17T20:47:44.185Z,31.32
2022-10-17T20:50:37.242Z,22.02
2022-10-17T20:53:36.426Z,27.95
2022-10-17T20:56:25.655Z,30.27
2022-10-17T20:59:13.530Z,25.60
2022-10-17T21:01:58.869Z,22.40
2022-10-17T21:04:46.762Z,28.77
2022-10-17T21:07:32.295Z,27.75
2022-10-17T21:10:35.098Z,29.92
2022-10-17T21:13:21.067Z,34.25
2022-10-17T21:16:11.608Z,33.95
2022-10-17T21:18:57.831Z,27.75
2022-10-17T21:21:45.599Z,18.98
2022-10-17T21:24:31.466Z,19.00
2022-10-17T21:27:18.499Z,36.08
2022-10-17T21:30:04.307Z,33.45
2022-10-17T21:32:53.698Z,26.30
2022-10-17T21:35:38.886Z,29.10
2022-10-17T21:38:23.806Z,27.25
2022-10-17T21:41:10.266Z,27.25
2022-10-17T21:44:00.843Z,33.95
2022-10-17T21:46:46.629Z,27.92
2022-10-17T21:49:31.751Z,17.92
2022-10-17T21:52:16.898Z,20.23
2022-10-17T21:55:01.787Z,19.67
2022-10-17T21:57:46.667Z,15.13
2022-10-17T22:00:32.094Z,15.60
2022-10-17T22:03:17.411Z,12.45
2022-10-17T22:06:12.694Z,19.60
2022-10-17T22:09:20.449Z,16.95
2022-10-17T22:12:05.414Z,18.27
2022-10-17T22:14:50.639Z,12.57
2022-10-17T22:17:35.413Z,20.17
2022-10-17T22:20:20.514Z,16.33
2022-10-17T22:23:05.442Z,17.52
2022-10-17T22:25:54.752Z,17.83
2022-10-17T22:28:41.223Z,13.00
2022-10-17T22:31:26.346Z,18.67
2022-10-17T22:34:14.142Z,21.48
2022-10-17T22:36:59.330Z,20.75
2022-10-17T22:39:44.418Z,23.08
2022-10-17T22:42:31.518Z,34.30
2022-10-17T22:45:16.822Z,40.47
2022-10-17T22:48:01.653Z,24.42
2022-10-17T22:50:48.807Z,34.50
2022-10-17T22:53:35.080Z,46.20
2022-10-17T22:56:20.798Z,91.95
2022-10-17T22:59:05.926Z,51.05
2022-10-17T23:01:51.036Z,63.90
2022-10-17T23:04:35.789Z,35.20
2022-10-17T23:07:21.165Z,19.02
2022-10-17T23:10:06.762Z,36.25
2022-10-17T23:12:51.792Z,25.77
2022-10-17T23:15:37.016Z,30.85
2022-10-17T23:18:23.142Z,26.20
2022-10-17T23:21:08.454Z,32.97
2022-10-17T23:23:53.244Z,15.13
2022-10-17T23:26:38.254Z,16.33
2022-10-17T23:29:24.268Z,11.57
2022-10-17T23:32:09.345Z,8.57
2022-10-17T23:34:54.231Z,12.15
2022-10-17T23:37:39.185Z,15.07
2022-10-17T23:40:24.112Z,9.45
2022-10-17T23:43:09.417Z,55.00
2022-10-17T23:45:54.418Z,26.52
2022-10-17T23:48:42.664Z,16.88
2022-10-17T23:51:27.859Z,20.23
2022-10-17T23:54:12.867Z,24.58
2022-10-17T23:56:57.938Z,41.58
2022-10-17T23:59:43.251Z,34.33
